sensor_id;sensor_type;location;lat;lon;timestamp;pressure;altitude;pressure_sealevel;temperature;humidity
73651;BME280;61944;52.538;6.108;2023-04-10T00:00:30;102023.31;;;9.08;89.59
73651;BME280;61944;52.538;6.108;2023-04-10T00:02:57;102020.06;;;9.06;85.66
73651;BME280;61944;52.538;6.108;2023-04-10T00:05:23;102015.66;;;9.05;84.40
73651;BME280;61944;52.538;6.108;2023-04-10T00:07:48;102013.81;;;9.09;86.05
73651;BME280;61944;52.538;6.108;2023-04-10T00:10:14;102018.59;;;9.30;90.48
73651;BME280;61944;52.538;6.108;2023-04-10T00:12:39;102011.75;;;9.19;84.46
73651;BME280;61944;52.538;6.108;2023-04-10T00:15:05;102011.09;;;9.22;90.04
73651;BME280;61944;52.538;6.108;2023-04-10T00:17:30;102008.13;;;9.39;88.86
73651;BME280;61944;52.538;6.108;2023-04-10T00:19:56;102006.72;;;9.33;88.02
73651;BME280;61944;52.538;6.108;2023-04-10T00:22:23;102001.59;;;9.35;88.55
73651;BME280;61944;52.538;6.108;2023-04-10T00:24:48;102009.44;;;9.21;87.20
73651;BME280;61944;52.538;6.108;2023-04-10T00:27:14;102000.97;;;9.08;86.05
73651;BME280;61944;52.538;6.108;2023-04-10T00:29:39;102000.16;;;9.29;88.28
73651;BME280;61944;52.538;6.108;2023-04-10T00:32:04;101997.78;;;9.19;89.83
73651;BME280;61944;52.538;6.108;2023-04-10T00:34:30;101993.06;;;9.31;88.69
73651;BME280;61944;52.538;6.108;2023-04-10T00:36:55;101979.25;;;9.35;88.74
73651;BME280;61944;52.538;6.108;2023-04-10T00:39:21;101973.06;;;9.08;84.50
73651;BME280;61944;52.538;6.108;2023-04-10T00:41:46;101953.31;;;9.13;89.03
73651;BME280;61944;52.538;6.108;2023-04-10T00:44:11;101950.31;;;8.98;84.70
73651;BME280;61944;52.538;6.108;2023-04-10T00:46:38;101946.22;;;8.95;87.16
73651;BME280;61944;52.538;6.108;2023-04-10T00:49:04;101946.63;;;8.85;88.68
73651;BME280;61944;52.538;6.108;2023-04-10T00:51:30;101951.06;;;8.86;89.10
73651;BME280;61944;52.538;6.108;2023-04-10T00:53:55;101946.22;;;8.95;90.19
73651;BME280;61944;52.538;6.108;2023-04-10T00:56:22;101935.00;;;8.83;87.54
73651;BME280;61944;52.538;6.108;2023-04-10T00:58:48;101928.38;;;8.87;89.02
73651;BME280;61944;52.538;6.108;2023-04-10T01:01:13;101928.66;;;8.73;85.86
73651;BME280;61944;52.538;6.108;2023-04-10T01:03:39;101929.28;;;8.79;89.85
73651;BME280;61944;52.538;6.108;2023-04-10T01:14:52;101915.97;;;8.55;87.12
73651;BME280;61944;52.538;6.108;2023-04-10T01:20:10;101918.91;;;8.59;86.67
73651;BME280;61944;52.538;6.108;2023-04-10T01:25:58;101915.09;;;8.63;88.94
73651;BME280;61944;52.538;6.108;2023-04-10T01:31:13;101913.34;;;8.80;90.40
73651;BME280;61944;52.538;6.108;2023-04-10T01:33:44;101923.31;;;8.60;87.06
73651;BME280;61944;52.538;6.108;2023-04-10T01:36:17;101917.91;;;8.63;88.61
73651;BME280;61944;52.538;6.108;2023-04-10T01:38:46;101913.53;;;8.53;85.74
73651;BME280;61944;52.538;6.108;2023-04-10T01:41:13;101913.66;;;8.57;88.63
73651;BME280;61944;52.538;6.108;2023-04-10T01:43:40;101911.59;;;8.45;86.65
73651;BME280;61944;52.538;6.108;2023-04-10T01:46:06;101908.78;;;8.54;90.05
73651;BME280;61944;52.538;6.108;2023-04-10T01:48:32;101902.28;;;8.32;89.88
73651;BME280;61944;52.538;6.108;2023-04-10T01:51:01;101898.38;;;8.04;87.82
73651;BME280;61944;52.538;6.108;2023-04-10T01:53:28;101909.31;;;8.09;87.08
73651;BME280;61944;52.538;6.108;2023-04-10T01:55:54;101909.16;;;8.14;88.72
73651;BME280;61944;52.538;6.108;2023-04-10T01:58:20;101907.59;;;8.25;89.71
73651;BME280;61944;52.538;6.108;2023-04-10T02:00:45;101902.28;;;8.03;89.68
73651;BME280;61944;52.538;6.108;2023-04-10T02:03:11;101898.66;;;8.11;89.47
73651;BME280;61944;52.538;6.108;2023-04-10T02:05:47;101897.41;;;8.00;87.34
73651;BME280;61944;52.538;6.108;2023-04-10T02:08:30;101893.97;;;7.94;89.00
73651;BME280;61944;52.538;6.108;2023-04-10T02:11:14;101885.56;;;8.03;91.25
73651;BME280;61944;52.538;6.108;2023-04-10T02:13:42;101882.81;;;7.94;88.54
73651;BME280;61944;52.538;6.108;2023-04-10T02:16:08;101880.53;;;8.26;94.07
73651;BME280;61944;52.538;6.108;2023-04-10T02:18:35;101882.66;;;7.99;89.24
73651;BME280;61944;52.538;6.108;2023-04-10T02:21:02;101870.28;;;8.09;90.04
73651;BME280;61944;52.538;6.108;2023-04-10T02:23:28;101875.22;;;8.12;89.71
73651;BME280;61944;52.538;6.108;2023-04-10T02:25:53;101879.50;;;8.01;88.35
73651;BME280;61944;52.538;6.108;2023-04-10T02:28:21;101867.31;;;8.14;87.90
73651;BME280;61944;52.538;6.108;2023-04-10T02:30:46;101869.16;;;8.10;90.47
73651;BME280;61944;52.538;6.108;2023-04-10T02:33:11;101869.47;;;8.08;91.12
73651;BME280;61944;52.538;6.108;2023-04-10T02:35:37;101862.13;;;7.74;89.69
73651;BME280;61944;52.538;6.108;2023-04-10T02:38:02;101862.84;;;7.92;91.32
73651;BME280;61944;52.538;6.108;2023-04-10T02:40:31;101863.63;;;7.92;91.18
73651;BME280;61944;52.538;6.108;2023-04-10T02:42:56;101863.03;;;7.87;90.64
73651;BME280;61944;52.538;6.108;2023-04-10T02:45:22;101860.03;;;7.92;88.68
73651;BME280;61944;52.538;6.108;2023-04-10T02:47:47;101856.13;;;7.93;90.65
73651;BME280;61944;52.538;6.108;2023-04-10T02:50:12;101858.69;;;7.98;90.28
73651;BME280;61944;52.538;6.108;2023-04-10T02:52:38;101866.09;;;7.94;90.13
73651;BME280;61944;52.538;6.108;2023-04-10T02:55:04;101850.75;;;7.79;90.46
73651;BME280;61944;52.538;6.108;2023-04-10T02:57:29;101859.06;;;7.88;90.98
73651;BME280;61944;52.538;6.108;2023-04-10T02:59:55;101856.19;;;7.76;90.58
73651;BME280;61944;52.538;6.108;2023-04-10T03:02:20;101855.09;;;7.68;90.42
73651;BME280;61944;52.538;6.108;2023-04-10T03:04:46;101851.94;;;7.78;90.38
73651;BME280;61944;52.538;6.108;2023-04-10T03:07:11;101848.22;;;7.65;91.70
73651;BME280;61944;52.538;6.108;2023-04-10T03:09:36;101859.13;;;7.79;91.20
73651;BME280;61944;52.538;6.108;2023-04-10T03:12:02;101853.06;;;7.77;91.37
73651;BME280;61944;52.538;6.108;2023-04-10T03:14:27;101850.28;;;7.77;90.35
73651;BME280;61944;52.538;6.108;2023-04-10T03:16:53;101849.03;;;7.96;90.47
73651;BME280;61944;52.538;6.108;2023-04-10T03:19:18;101850.16;;;7.65;90.03
73651;BME280;61944;52.538;6.108;2023-04-10T03:21:44;101856.22;;;7.67;90.46
73651;BME280;61944;52.538;6.108;2023-04-10T03:24:10;101853.25;;;7.72;92.90
73651;BME280;61944;52.538;6.108;2023-04-10T03:26:35;101861.63;;;7.72;91.69
73651;BME280;61944;52.538;6.108;2023-04-10T03:29:01;101856.22;;;7.67;90.94
73651;BME280;61944;52.538;6.108;2023-04-10T03:31:26;101850.97;;;7.74;93.78
73651;BME280;61944;52.538;6.108;2023-04-10T03:33:52;101854.88;;;7.73;90.66
73651;BME280;61944;52.538;6.108;2023-04-10T03:36:17;101855.69;;;7.82;92.96
73651;BME280;61944;52.538;6.108;2023-04-10T03:38:42;101852.31;;;7.68;90.65
73651;BME280;61944;52.538;6.108;2023-04-10T03:41:08;101849.63;;;7.71;91.10
73651;BME280;61944;52.538;6.108;2023-04-10T03:43:33;101845.50;;;7.86;92.23
73651;BME280;61944;52.538;6.108;2023-04-10T03:45:59;101856.06;;;7.72;90.38
73651;BME280;61944;52.538;6.108;2023-04-10T03:48:25;101858.97;;;7.76;92.33
73651;BME280;61944;52.538;6.108;2023-04-10T03:50:53;101851.44;;;7.76;92.44
73651;BME280;61944;52.538;6.108;2023-04-10T03:53:18;101846.72;;;7.68;90.96
73651;BME280;61944;52.538;6.108;2023-04-10T03:55:44;101844.91;;;7.72;90.57
73651;BME280;61944;52.538;6.108;2023-04-10T03:58:10;101837.03;;;7.74;91.22
73651;BME280;61944;52.538;6.108;2023-04-10T04:00:36;101837.59;;;7.50;91.90
73651;BME280;61944;52.538;6.108;2023-04-10T04:03:02;101831.13;;;7.67;92.70
73651;BME280;61944;52.538;6.108;2023-04-10T04:05:30;101832.69;;;7.56;91.42
73651;BME280;61944;52.538;6.108;2023-04-10T04:07:55;101826.09;;;7.60;93.35
73651;BME280;61944;52.538;6.108;2023-04-10T04:10:20;101825.19;;;7.77;93.44
73651;BME280;61944;52.538;6.108;2023-04-10T04:12:46;101824.47;;;7.59;93.19
73651;BME280;61944;52.538;6.108;2023-04-10T04:15:11;101828.06;;;7.60;91.40
73651;BME280;61944;52.538;6.108;2023-04-10T04:17:36;101818.94;;;7.42;91.95
73651;BME280;61944;52.538;6.108;2023-04-10T04:20:02;101818.75;;;7.56;92.81
73651;BME280;61944;52.538;6.108;2023-04-10T04:22:28;101815.09;;;7.64;93.71
73651;BME280;61944;52.538;6.108;2023-04-10T04:24:53;101819.22;;;7.58;93.07
73651;BME280;61944;52.538;6.108;2023-04-10T04:27:18;101817.69;;;7.69;92.77
73651;BME280;61944;52.538;6.108;2023-04-10T04:29:46;101807.72;;;7.68;92.78
73651;BME280;61944;52.538;6.108;2023-04-10T04:32:11;101807.50;;;7.73;92.67
73651;BME280;61944;52.538;6.108;2023-04-10T04:34:36;101809.81;;;7.71;90.69
73651;BME280;61944;52.538;6.108;2023-04-10T04:37:02;101811.31;;;7.68;92.75
73651;BME280;61944;52.538;6.108;2023-04-10T04:39:27;101801.19;;;7.64;92.66
73651;BME280;61944;52.538;6.108;2023-04-10T04:41:52;101809.63;;;7.46;91.57
73651;BME280;61944;52.538;6.108;2023-04-10T04:44:18;101794.16;;;7.58;91.60
73651;BME280;61944;52.538;6.108;2023-04-10T04:46:44;101799.72;;;7.58;93.44
73651;BME280;61944;52.538;6.108;2023-04-10T04:49:09;101805.16;;;7.54;91.87
73651;BME280;61944;52.538;6.108;2023-04-10T04:51:34;101812.00;;;7.57;93.49
73651;BME280;61944;52.538;6.108;2023-04-10T04:54:01;101802.63;;;7.70;92.96
73651;BME280;61944;52.538;6.108;2023-04-10T04:56:26;101804.13;;;7.59;91.57
73651;BME280;61944;52.538;6.108;2023-04-10T04:58:51;101805.66;;;7.47;91.63
73651;BME280;61944;52.538;6.108;2023-04-10T05:01:17;101803.97;;;7.64;92.52
73651;BME280;61944;52.538;6.108;2023-04-10T05:03:42;101790.19;;;7.59;91.96
73651;BME280;61944;52.538;6.108;2023-04-10T05:06:07;101795.19;;;7.44;91.38
73651;BME280;61944;52.538;6.108;2023-04-10T05:08:33;101803.66;;;7.57;93.15
73651;BME280;61944;52.538;6.108;2023-04-10T05:10:58;101788.59;;;7.58;92.97
73651;BME280;61944;52.538;6.108;2023-04-10T05:13:23;101788.66;;;7.40;93.61
73651;BME280;61944;52.538;6.108;2023-04-10T05:15:49;101786.94;;;7.57;90.82
73651;BME280;61944;52.538;6.108;2023-04-10T05:18:14;101788.59;;;7.58;91.41
73651;BME280;61944;52.538;6.108;2023-04-10T05:20:45;101777.13;;;7.50;91.32
73651;BME280;61944;52.538;6.108;2023-04-10T05:23:10;101779.81;;;7.38;92.50
73651;BME280;61944;52.538;6.108;2023-04-10T05:25:36;101777.38;;;7.37;93.16
73651;BME280;61944;52.538;6.108;2023-04-10T05:28:01;101775.63;;;7.62;94.76
73651;BME280;61944;52.538;6.108;2023-04-10T05:30:26;101776.19;;;7.46;90.99
73651;BME280;61944;52.538;6.108;2023-04-10T05:32:52;101787.13;;;7.51;91.44
73651;BME280;61944;52.538;6.108;2023-04-10T05:35:17;101790.50;;;7.66;92.60
73651;BME280;61944;52.538;6.108;2023-04-10T05:37:42;101786.28;;;7.60;91.71
73651;BME280;61944;52.538;6.108;2023-04-10T05:40:08;101788.59;;;7.58;92.60
73651;BME280;61944;52.538;6.108;2023-04-10T05:42:33;101797.16;;;7.73;91.14
73651;BME280;61944;52.538;6.108;2023-04-10T05:44:59;101789.69;;;7.65;91.78
73651;BME280;61944;52.538;6.108;2023-04-10T05:47:24;101790.72;;;7.82;90.27
73651;BME280;61944;52.538;6.108;2023-04-10T05:49:50;101786.31;;;7.81;91.49
73651;BME280;61944;52.538;6.108;2023-04-10T05:52:15;101780.97;;;7.67;90.04
73651;BME280;61944;52.538;6.108;2023-04-10T05:54:40;101780.59;;;7.77;90.78
73651;BME280;61944;52.538;6.108;2023-04-10T05:57:06;101782.25;;;7.78;91.24
73651;BME280;61944;52.538;6.108;2023-04-10T05:59:31;101782.63;;;7.68;90.68
73651;BME280;61944;52.538;6.108;2023-04-10T06:01:56;101780.03;;;7.63;90.48
73651;BME280;61944;52.538;6.108;2023-04-10T06:04:22;101777.19;;;7.71;90.68
73651;BME280;61944;52.538;6.108;2023-04-10T06:06:47;101771.88;;;7.58;91.09
73651;BME280;61944;52.538;6.108;2023-04-10T06:09:13;101774.06;;;7.73;91.03
73651;BME280;61944;52.538;6.108;2023-04-10T06:11:38;101778.69;;;7.69;90.70
73651;BME280;61944;52.538;6.108;2023-04-10T06:14:04;101767.91;;;7.59;90.84
73651;BME280;61944;52.538;6.108;2023-04-10T06:16:29;101773.41;;;7.76;91.84
73651;BME280;61944;52.538;6.108;2023-04-10T06:18:55;101772.63;;;7.67;91.53
73651;BME280;61944;52.538;6.108;2023-04-10T06:21:20;101764.34;;;7.79;91.12
73651;BME280;61944;52.538;6.108;2023-04-10T06:23:45;101765.53;;;7.78;91.06
73651;BME280;61944;52.538;6.108;2023-04-10T06:26:11;101765.84;;;7.77;91.36
73651;BME280;61944;52.538;6.108;2023-04-10T06:28:36;101751.47;;;7.96;92.47
73651;BME280;61944;52.538;6.108;2023-04-10T06:31:02;101743.50;;;7.85;90.54
73651;BME280;61944;52.538;6.108;2023-04-10T06:33:28;101741.66;;;7.89;91.04
73651;BME280;61944;52.538;6.108;2023-04-10T06:35:53;101740.97;;;7.92;91.33
73651;BME280;61944;52.538;6.108;2023-04-10T06:38:20;101739.16;;;7.97;90.91
73651;BME280;61944;52.538;6.108;2023-04-10T06:40:45;101731.66;;;8.09;91.79
73651;BME280;61944;52.538;6.108;2023-04-10T06:43:10;101733.56;;;8.18;90.26
73651;BME280;61944;52.538;6.108;2023-04-10T06:45:36;101730.59;;;8.23;91.17
73651;BME280;61944;52.538;6.108;2023-04-10T06:48:01;101730.47;;;8.19;90.00
73651;BME280;61944;52.538;6.108;2023-04-10T06:50:26;101735.63;;;8.29;89.41
73651;BME280;61944;52.538;6.108;2023-04-10T06:52:52;101729.34;;;8.32;88.86
73651;BME280;61944;52.538;6.108;2023-04-10T06:55:20;101724.59;;;8.33;89.75
73651;BME280;61944;52.538;6.108;2023-04-10T06:57:45;101719.63;;;8.39;89.43
73651;BME280;61944;52.538;6.108;2023-04-10T07:00:11;101720.97;;;8.41;89.48
73651;BME280;61944;52.538;6.108;2023-04-10T07:02:36;101718.75;;;8.47;89.33
73651;BME280;61944;52.538;6.108;2023-04-10T07:05:01;101717.66;;;8.60;88.63
73651;BME280;61944;52.538;6.108;2023-04-10T07:07:27;101708.81;;;8.70;89.21
73651;BME280;61944;52.538;6.108;2023-04-10T07:09:53;101699.53;;;8.79;88.26
73651;BME280;61944;52.538;6.108;2023-04-10T07:12:18;101689.78;;;8.85;88.20
73651;BME280;61944;52.538;6.108;2023-04-10T07:14:44;101692.34;;;9.02;87.61
73651;BME280;61944;52.538;6.108;2023-04-10T07:17:09;101686.69;;;9.11;86.11
73651;BME280;61944;52.538;6.108;2023-04-10T07:19:34;101674.00;;;9.13;85.47
73651;BME280;61944;52.538;6.108;2023-04-10T07:22:02;101673.53;;;9.24;84.97
73651;BME280;61944;52.538;6.108;2023-04-10T07:24:27;101661.91;;;9.34;85.69
73651;BME280;61944;52.538;6.108;2023-04-10T07:26:52;101659.06;;;9.46;83.46
73651;BME280;61944;52.538;6.108;2023-04-10T07:29:18;101652.78;;;9.62;83.49
73651;BME280;61944;52.538;6.108;2023-04-10T07:31:44;101648.72;;;10.00;86.42
73651;BME280;61944;52.538;6.108;2023-04-10T07:34:10;101640.56;;;9.94;80.34
73651;BME280;61944;52.538;6.108;2023-04-10T07:36:36;101633.44;;;9.97;80.56
73651;BME280;61944;52.538;6.108;2023-04-10T07:39:01;101633.88;;;9.99;81.11
73651;BME280;61944;52.538;6.108;2023-04-10T07:41:27;101626.81;;;10.17;82.10
73651;BME280;61944;52.538;6.108;2023-04-10T07:43:52;101626.06;;;10.05;80.03
73651;BME280;61944;52.538;6.108;2023-04-10T07:46:18;101612.28;;;10.56;76.71
73651;BME280;61944;52.538;6.108;2023-04-10T07:48:43;101610.31;;;10.28;78.03
73651;BME280;61944;52.538;6.108;2023-04-10T07:51:09;101616.50;;;10.34;79.60
73651;BME280;61944;52.538;6.108;2023-04-10T07:53:35;101615.66;;;10.46;80.84
73651;BME280;61944;52.538;6.108;2023-04-10T07:56:01;101612.84;;;10.46;77.63
73651;BME280;61944;52.538;6.108;2023-04-10T07:58:27;101609.72;;;10.35;77.83
73651;BME280;61944;52.538;6.108;2023-04-10T08:00:52;101597.03;;;10.37;78.17
73651;BME280;61944;52.538;6.108;2023-04-10T08:03:17;101598.56;;;10.51;78.00
73651;BME280;61944;52.538;6.108;2023-04-10T08:05:43;101607.16;;;10.58;76.60
73651;BME280;61944;52.538;6.108;2023-04-10T08:08:08;101609.41;;;10.52;76.61
73651;BME280;61944;52.538;6.108;2023-04-10T08:10:37;101597.59;;;10.59;76.15
73651;BME280;61944;52.538;6.108;2023-04-10T08:13:04;101603.72;;;10.49;76.17
73651;BME280;61944;52.538;6.108;2023-04-10T08:15:29;101604.25;;;10.70;76.04
73651;BME280;61944;52.538;6.108;2023-04-10T08:17:54;101597.88;;;10.86;74.96
73651;BME280;61944;52.538;6.108;2023-04-10T08:20:20;101599.63;;;10.94;74.36
73651;BME280;61944;52.538;6.108;2023-04-10T08:22:45;101593.94;;;11.06;74.76
73651;BME280;61944;52.538;6.108;2023-04-10T08:25:11;101591.59;;;11.08;74.58
73651;BME280;61944;52.538;6.108;2023-04-10T08:27:36;101583.63;;;11.10;74.26
73651;BME280;61944;52.538;6.108;2023-04-10T08:30:02;101577.78;;;11.35;73.84
73651;BME280;61944;52.538;6.108;2023-04-10T08:32:27;101577.81;;;11.74;71.73
73651;BME280;61944;52.538;6.108;2023-04-10T08:34:53;101576.72;;;11.78;71.70
73651;BME280;61944;52.538;6.108;2023-04-10T08:37:18;101579.22;;;11.64;71.73
73651;BME280;61944;52.538;6.108;2023-04-10T08:39:45;101588.25;;;11.93;73.81
73651;BME280;61944;52.538;6.108;2023-04-10T08:42:10;101567.63;;;11.66;71.37
73651;BME280;61944;52.538;6.108;2023-04-10T08:44:36;101578.47;;;11.67;72.35
73651;BME280;61944;52.538;6.108;2023-04-10T08:47:02;101572.69;;;11.95;71.54
73651;BME280;61944;52.538;6.108;2023-04-10T08:49:53;101572.81;;;12.03;70.59
73651;BME280;61944;52.538;6.108;2023-04-10T08:52:24;101568.38;;;12.21;70.97
73651;BME280;61944;52.538;6.108;2023-04-10T08:54:55;101563.69;;;12.29;70.15
73651;BME280;61944;52.538;6.108;2023-04-10T08:57:22;101554.34;;;12.21;69.59
73651;BME280;61944;52.538;6.108;2023-04-10T08:59:49;101554.16;;;12.33;70.21
73651;BME280;61944;52.538;6.108;2023-04-10T09:02:16;101539.47;;;12.20;70.01
73651;BME280;61944;52.538;6.108;2023-04-10T09:04:47;101528.25;;;12.20;67.57
73651;BME280;61944;52.538;6.108;2023-04-10T09:07:14;101546.53;;;12.57;67.28
73651;BME280;61944;52.538;6.108;2023-04-10T09:09:42;101545.59;;;12.49;67.67
73651;BME280;61944;52.538;6.108;2023-04-10T09:12:08;101525.56;;;12.51;69.65
73651;BME280;61944;52.538;6.108;2023-04-10T09:14:35;101520.06;;;12.35;69.90
73651;BME280;61944;52.538;6.108;2023-04-10T09:17:21;101530.81;;;13.96;79.04
73651;BME280;61944;52.538;6.108;2023-04-10T09:19:49;101532.63;;;12.91;68.69
73651;BME280;61944;52.538;6.108;2023-04-10T09:22:15;101530.44;;;12.54;69.33
73651;BME280;61944;52.538;6.108;2023-04-10T09:24:43;101527.78;;;12.65;67.73
73651;BME280;61944;52.538;6.108;2023-04-10T09:27:26;101530.59;;;12.65;69.13
73651;BME280;61944;52.538;6.108;2023-04-10T09:29:52;101527.56;;;12.73;68.26
73651;BME280;61944;52.538;6.108;2023-04-10T09:35:05;101514.88;;;13.40;69.16
73651;BME280;61944;52.538;6.108;2023-04-10T09:37:35;101505.75;;;13.50;64.75
73651;BME280;61944;52.538;6.108;2023-04-10T09:40:01;101489.94;;;13.72;63.27
73651;BME280;61944;52.538;6.108;2023-04-10T09:42:45;101489.63;;;13.17;62.70
73651;BME280;61944;52.538;6.108;2023-04-10T09:45:10;101487.19;;;13.15;62.55
73651;BME280;61944;52.538;6.108;2023-04-10T09:47:35;101463.97;;;13.49;62.92
73651;BME280;61944;52.538;6.108;2023-04-10T09:50:02;101472.56;;;13.29;65.15
73651;BME280;61944;52.538;6.108;2023-04-10T09:52:29;101465.78;;;13.34;61.88
73651;BME280;61944;52.538;6.108;2023-04-10T09:54:57;101472.41;;;13.18;63.42
73651;BME280;61944;52.538;6.108;2023-04-10T09:57:24;101463.53;;;13.47;62.02
73651;BME280;61944;52.538;6.108;2023-04-10T09:59:56;101454.63;;;13.11;64.26
73651;BME280;61944;52.538;6.108;2023-04-10T10:02:33;101445.31;;;13.07;66.37
73651;BME280;61944;52.538;6.108;2023-04-10T10:05:01;101445.09;;;13.19;65.67
73651;BME280;61944;52.538;6.108;2023-04-10T10:07:28;101441.44;;;13.15;64.19
73651;BME280;61944;52.538;6.108;2023-04-10T10:09:55;101455.69;;;12.99;67.62
73651;BME280;61944;52.538;6.108;2023-04-10T10:12:26;101442.22;;;13.15;64.78
73651;BME280;61944;52.538;6.108;2023-04-10T10:18:26;101427.84;;;13.20;65.42
73651;BME280;61944;52.538;6.108;2023-04-10T10:20:55;101430.75;;;13.28;67.01
73651;BME280;61944;52.538;6.108;2023-04-10T10:23:21;101422.44;;;13.35;63.92
73651;BME280;61944;52.538;6.108;2023-04-10T10:25:47;101405.75;;;13.19;66.24
73651;BME280;61944;52.538;6.108;2023-04-10T10:28:15;101406.38;;;13.05;65.58
73651;BME280;61944;52.538;6.108;2023-04-10T10:30:42;101397.13;;;13.05;65.10
73651;BME280;61944;52.538;6.108;2023-04-10T10:33:09;101394.00;;;13.13;67.11
73651;BME280;61944;52.538;6.108;2023-04-10T10:35:36;101396.16;;;13.23;63.45
73651;BME280;61944;52.538;6.108;2023-04-10T10:38:03;101384.69;;;13.36;63.30
73651;BME280;61944;52.538;6.108;2023-04-10T10:40:32;101380.31;;;13.42;63.43
73651;BME280;61944;52.538;6.108;2023-04-10T10:43:26;101383.91;;;13.39;64.03
73651;BME280;61944;52.538;6.108;2023-04-10T10:46:06;101364.19;;;13.35;65.66
73651;BME280;61944;52.538;6.108;2023-04-10T10:48:33;101364.03;;;13.58;63.11
73651;BME280;61944;52.538;6.108;2023-04-10T10:50:59;101363.75;;;13.74;63.18
73651;BME280;61944;52.538;6.108;2023-04-10T10:53:37;101357.75;;;13.76;64.29
73651;BME280;61944;52.538;6.108;2023-04-10T10:58:49;101346.91;;;13.78;64.37
73651;BME280;61944;52.538;6.108;2023-04-10T11:01:15;101343.34;;;13.81;64.04
73651;BME280;61944;52.538;6.108;2023-04-10T11:03:41;101329.69;;;13.83;64.33
73651;BME280;61944;52.538;6.108;2023-04-10T11:06:10;101323.94;;;13.69;62.78
73651;BME280;61944;52.538;6.108;2023-04-10T11:08:38;101328.84;;;13.79;62.99
73651;BME280;61944;52.538;6.108;2023-04-10T11:11:08;101318.03;;;13.81;65.94
73651;BME280;61944;52.538;6.108;2023-04-10T11:13:39;101312.81;;;13.83;66.59
73651;BME280;61944;52.538;6.108;2023-04-10T11:16:06;101320.63;;;14.08;64.34
73651;BME280;61944;52.538;6.108;2023-04-10T11:21:21;101307.34;;;14.08;66.27
73651;BME280;61944;52.538;6.108;2023-04-10T11:28:57;101288.06;;;14.07;65.57
73651;BME280;61944;52.538;6.108;2023-04-10T11:31:23;101279.72;;;14.28;65.29
73651;BME280;61944;52.538;6.108;2023-04-10T11:34:09;101263.97;;;14.16;65.94
73651;BME280;61944;52.538;6.108;2023-04-10T11:36:40;101264.75;;;14.13;66.28
73651;BME280;61944;52.538;6.108;2023-04-10T11:41:40;101262.69;;;14.83;60.94
73651;BME280;61944;52.538;6.108;2023-04-10T11:44:12;101259.47;;;14.85;64.72
73651;BME280;61944;52.538;6.108;2023-04-10T11:46:40;101253.41;;;14.72;62.99
73651;BME280;61944;52.538;6.108;2023-04-10T11:49:06;101257.50;;;14.93;60.74
73651;BME280;61944;52.538;6.108;2023-04-10T11:51:34;101258.66;;;14.81;60.15
73651;BME280;61944;52.538;6.108;2023-04-10T11:56:37;101242.25;;;15.94;68.22
73651;BME280;61944;52.538;6.108;2023-04-10T11:59:02;101228.94;;;15.34;61.69
73651;BME280;61944;52.538;6.108;2023-04-10T12:01:32;101223.22;;;14.76;62.38
73651;BME280;61944;52.538;6.108;2023-04-10T12:03:58;101222.38;;;14.69;62.59
73651;BME280;61944;52.538;6.108;2023-04-10T12:06:24;101212.78;;;14.88;62.47
73651;BME280;61944;52.538;6.108;2023-04-10T12:08:49;101196.25;;;14.86;61.91
73651;BME280;61944;52.538;6.108;2023-04-10T12:11:19;101219.97;;;14.67;62.69
73651;BME280;61944;52.538;6.108;2023-04-10T12:13:46;101213.91;;;14.65;63.38
73651;BME280;61944;52.538;6.108;2023-04-10T12:16:12;101207.88;;;14.59;62.82
73651;BME280;61944;52.538;6.108;2023-04-10T12:18:38;101197.38;;;14.56;63.20
73651;BME280;61944;52.538;6.108;2023-04-10T12:21:05;101194.94;;;14.51;64.41
73651;BME280;61944;52.538;6.108;2023-04-10T12:23:31;101190.09;;;14.52;65.45
73651;BME280;61944;52.538;6.108;2023-04-10T12:26:16;101194.16;;;14.51;64.39
73651;BME280;61944;52.538;6.108;2023-04-10T12:28:50;101187.69;;;14.54;65.30
73651;BME280;61944;52.538;6.108;2023-04-10T12:31:15;101197.75;;;14.48;65.27
73651;BME280;61944;52.538;6.108;2023-04-10T12:33:47;101188.56;;;14.58;64.86
73651;BME280;61944;52.538;6.108;2023-04-10T12:36:23;101195.00;;;14.62;66.18
73651;BME280;61944;52.538;6.108;2023-04-10T12:38:50;101174.88;;;14.67;66.10
73651;BME280;61944;52.538;6.108;2023-04-10T12:41:21;101158.00;;;14.85;65.94
73651;BME280;61944;52.538;6.108;2023-04-10T12:43:47;101168.50;;;14.84;65.57
73651;BME280;61944;52.538;6.108;2023-04-10T12:46:23;101163.66;;;14.89;66.94
73651;BME280;61944;52.538;6.108;2023-04-10T12:48:49;101157.25;;;14.99;67.31
73651;BME280;61944;52.538;6.108;2023-04-10T12:51:14;101134.28;;;14.97;65.64
73651;BME280;61944;52.538;6.108;2023-04-10T12:53:43;101132.66;;;14.96;68.17
73651;BME280;61944;52.538;6.108;2023-04-10T12:56:11;101125.41;;;15.09;64.35
73651;BME280;61944;52.538;6.108;2023-04-10T12:58:38;101116.13;;;15.05;64.76
73651;BME280;61944;52.538;6.108;2023-04-10T13:01:05;101108.50;;;14.98;66.78
73651;BME280;61944;52.538;6.108;2023-04-10T13:03:35;101110.50;;;15.05;66.13
73651;BME280;61944;52.538;6.108;2023-04-10T13:06:02;101110.09;;;15.10;64.20
73651;BME280;61944;52.538;6.108;2023-04-10T13:08:29;101096.44;;;15.01;65.53
73651;BME280;61944;52.538;6.108;2023-04-10T13:10:59;101096.38;;;15.37;66.83
73651;BME280;61944;52.538;6.108;2023-04-10T13:13:30;101088.75;;;15.23;65.44
73651;BME280;61944;52.538;6.108;2023-04-10T13:15:58;101095.22;;;14.95;67.53
73651;BME280;61944;52.538;6.108;2023-04-10T13:18:24;101070.66;;;14.96;67.00
73651;BME280;61944;52.538;6.108;2023-04-10T13:20:50;101072.63;;;15.13;65.78
73651;BME280;61944;52.538;6.108;2023-04-10T13:23:15;101063.78;;;15.11;67.24
73651;BME280;61944;52.538;6.108;2023-04-10T13:25:41;101065.41;;;15.09;65.93
73651;BME280;61944;52.538;6.108;2023-04-10T13:28:07;101046.88;;;15.11;65.97
73651;BME280;61944;52.538;6.108;2023-04-10T13:30:36;101032.38;;;15.02;66.26
73651;BME280;61944;52.538;6.108;2023-04-10T13:33:02;101023.50;;;15.07;65.85